Time;durP1;ratioP1;P1;durP2;ratioP2;P2;SDS_P1;SDS_P2;PMS_P1;PMS_P2;Temp;Humidity;BMP_temperature;BMP_pressure;BME280_temperature;BME280_humidity;BME280_pressure;Samples;Min_cycle;Max_cycle;Signal;HPM_P1;HPM_P2
2021/12/23 00:04:13;;;;;;;40.50;15.30;;;-5.50;99.90;;;-8.17;89.60;101276.97;10362627;28;97034;-75
2021/12/23 00:09:16;;;;;;;47.90;18.73;;;-5.60;99.90;;;-8.19;89.94;101273.59;10378576;28;98310;-76
2021/12/23 00:14:18;;;;;;;40.60;17.57;;;-5.60;99.90;;;-8.22;90.52;101265.88;10374380;28;96626;-75
2021/12/23 00:19:58;;;;;;;55.07;20.03;;;-5.60;99.90;;;-8.25;89.71;101253.06;10363420;28;96928;-75
2021/12/23 00:24:46;;;;;;;38.23;14.97;;;-5.60;99.90;;;-8.26;89.97;101253.94;10409060;27;97389;-75
2021/12/23 00:29:49;;;;;;;47.97;17.30;;;-5.70;99.90;;;-8.29;90.27;101251.38;10387227;28;98381;-75
2021/12/23 00:34:52;;;;;;;43.57;15.30;;;-5.70;99.90;;;-8.30;90.41;101252.25;10386063;28;96591;-75
2021/12/23 00:39:56;;;;;;;36.13;14.67;;;-5.70;99.90;;;-8.29;90.41;101252.22;10364596;28;96664;-75
2021/12/23 00:44:59;;;;;;;33.23;13.10;;;-5.70;99.90;;;-8.29;90.44;101241.91;10367255;28;96985;-75
2021/12/23 00:50:02;;;;;;;37.77;12.63;;;-5.70;99.90;;;-8.31;90.95;101248.84;10382820;28;96675;-75
2021/12/23 00:55:09;;;;;;;35.77;13.57;;;-5.70;99.90;;;-8.32;90.49;101247.13;10377457;28;97414;-74
2021/12/23 01:00:21;;;;;;;34.83;13.13;;;-5.70;99.90;;;-8.35;90.45;101248.00;10386415;28;96601;-75
2021/12/23 01:05:24;;;;;;;34.67;13.75;;;-5.80;99.90;;;-8.40;90.66;101244.69;10368790;28;96631;-76
2021/12/23 01:10:27;;;;;;;42.37;13.50;;;-5.80;99.90;;;-8.46;90.70;101239.63;10383629;28;96606;-75
2021/12/23 01:20:52;;;;;;;28.80;12.17;;;-5.90;99.90;;;-8.55;90.96;101234.63;10384010;28;98203;-76
2021/12/23 01:25:54;;;;;;;36.70;13.90;;;-5.90;99.90;;;-8.60;90.54;101222.66;10398209;27;96937;-75
2021/12/23 01:30:57;;;;;;;41.97;14.07;;;-6.00;99.90;;;-8.64;90.38;101227.00;10380188;28;96668;-75
2021/12/23 01:36:00;;;;;;;32.60;12.23;;;-6.00;99.90;;;-8.70;91.10;101222.78;10372392;27;96595;-75
2021/12/23 01:41:05;;;;;;;39.33;14.07;;;-6.10;99.90;;;-8.73;90.54;101217.69;10376055;27;96819;-75
2021/12/23 01:46:08;;;;;;;39.43;14.97;;;-6.10;99.90;;;-8.76;90.48;101209.13;10385647;28;96995;-75
2021/12/23 01:51:12;;;;;;;34.97;14.47;;;-6.20;99.90;;;-8.78;90.67;101208.31;10369479;27;96586;-75
2021/12/23 01:56:17;;;;;;;37.63;14.90;;;-6.20;99.90;;;-8.80;91.44;101208.34;10384931;28;96620;-75
2021/12/23 02:01:21;;;;;;;36.40;13.43;;;-6.20;99.90;;;-8.82;90.87;101193.75;10375607;28;96858;-75
2021/12/23 02:06:24;;;;;;;40.57;13.73;;;-6.20;99.90;;;-8.84;91.21;101185.22;10366012;27;97249;-75
2021/12/23 02:11:27;;;;;;;34.70;13.37;;;-6.20;99.90;;;-8.86;91.39;101192.13;10369016;28;98949;-76
2021/12/23 02:16:30;;;;;;;33.40;13.50;;;-6.20;99.90;;;-8.91;91.06;101198.19;10365865;27;98090;-75
2021/12/23 02:21:33;;;;;;;33.90;14.00;;;-6.30;99.90;;;-8.95;91.45;101193.09;10356564;28;96760;-75
2021/12/23 02:26:41;;;;;;;37.57;13.73;;;-6.30;99.90;;;-9.00;90.66;101190.56;10383652;27;98517;-75
2021/12/23 02:31:51;;;;;;;33.97;13.33;;;-6.40;99.90;;;-9.06;91.37;101167.47;10352924;28;96752;-75
2021/12/23 02:36:58;;;;;;;30.70;12.87;;;-6.40;99.90;;;-9.11;91.24;101169.28;10348644;28;97836;-75
2021/12/23 02:42:02;;;;;;;38.40;14.30;;;-6.50;99.90;;;-9.14;91.37;101166.72;10329075;28;97946;-75
2021/12/23 02:47:06;;;;;;;36.37;14.97;;;-6.50;99.90;;;-9.17;91.39;101161.63;10353500;28;98397;-76
2021/12/23 02:52:09;;;;;;;36.77;14.37;;;-6.60;99.90;;;-9.19;91.54;101148.75;10329007;28;96891;-75
2021/12/23 02:57:12;;;;;;;32.93;12.90;;;-6.50;99.90;;;-9.21;91.44;101149.66;10346388;28;97029;-75
2021/12/23 03:02:14;;;;;;;37.57;15.23;;;-6.60;99.90;;;-9.25;91.46;101142.84;10315621;28;98153;-75
2021/12/23 03:07:18;;;;;;;35.63;13.90;;;-6.60;99.90;;;-9.27;91.81;101140.28;10352642;28;96606;-75
2021/12/23 03:12:20;;;;;;;44.60;14.67;;;-6.60;99.90;;;-9.28;91.94;101137.75;10346465;28;97138;-75
2021/12/23 03:17:23;;;;;;;35.97;14.13;;;-6.70;99.90;;;-9.30;91.48;101134.31;10334456;28;97631;-75
2021/12/23 03:22:26;;;;;;;41.60;15.60;;;-6.70;99.90;;;-9.32;92.12;101134.34;10350200;28;96938;-75
2021/12/23 03:27:30;;;;;;;45.07;16.23;;;-6.70;99.90;;;-9.33;91.95;101124.94;10337626;28;96838;-75
2021/12/23 03:32:35;;;;;;;38.97;15.07;;;-6.70;99.90;;;-9.33;92.49;101113.78;10383345;28;96813;-75
2021/12/23 03:37:38;;;;;;;37.37;14.73;;;-6.70;99.90;;;-9.34;92.21;101114.66;10363635;27;97309;-75
2021/12/23 03:42:42;;;;;;;36.50;13.40;;;-6.70;99.90;;;-9.35;92.26;101116.38;10385813;27;97246;-75
2021/12/23 03:47:48;;;;;;;41.27;15.93;;;-6.80;99.90;;;-9.36;92.70;101113.81;10392919;28;96592;-74
2021/12/23 03:52:52;;;;;;;36.17;16.27;;;-6.80;99.90;;;-9.34;92.30;101114.66;10382761;27;96648;-75
2021/12/23 03:57:55;;;;;;;42.27;16.30;;;-6.80;99.90;;;-9.35;92.24;101112.97;10377591;27;96634;-75
2021/12/23 04:02:58;;;;;;;39.63;16.00;;;-6.80;99.90;;;-9.34;92.31;101117.25;10379764;28;97682;-75
2021/12/23 04:08:02;;;;;;;36.53;16.23;;;-6.80;99.90;;;-9.30;92.36;101112.00;10377072;28;96889;-75
2021/12/23 04:13:05;;;;;;;38.30;16.13;;;-6.70;99.90;;;-9.22;92.18;101106.78;10361653;28;97061;-75
2021/12/23 04:18:08;;;;;;;44.03;17.37;;;-6.70;99.90;;;-9.18;92.90;101095.53;10379597;28;97349;-75
2021/12/23 04:23:11;;;;;;;47.97;16.70;;;-6.60;99.90;;;-9.10;92.51;101090.31;10400880;28;97118;-75
2021/12/23 04:28:15;;;;;;;44.17;16.37;;;-6.60;99.90;;;-9.04;93.02;101082.50;10366077;28;98815;-75
2021/12/23 04:33:18;;;;;;;39.13;14.63;;;-6.50;99.90;;;-8.97;92.83;101082.38;10368361;28;97267;-75
2021/12/23 04:38:21;;;;;;;45.03;16.10;;;-6.50;99.90;;;-8.88;92.94;101088.25;10374452;28;98131;-75
2021/12/23 04:43:24;;;;;;;37.73;13.43;;;-6.40;99.90;;;-8.79;92.89;101081.22;10391448;28;96678;-75
2021/12/23 04:48:27;;;;;;;38.07;14.07;;;-6.40;99.90;;;-8.72;92.51;101072.53;10358880;28;98556;-75
2021/12/23 04:53:30;;;;;;;45.47;14.33;;;-6.20;99.90;;;-8.70;92.44;101070.75;10347119;28;97178;-75
2021/12/23 04:58:33;;;;;;;49.60;18.20;;;-6.20;99.90;;;-8.70;92.39;101080.22;10362477;27;96727;-75
2021/12/23 05:03:36;;;;;;;52.40;17.33;;;-6.20;99.90;;;-8.75;93.28;101076.91;10371758;28;96762;-75
2021/12/23 05:08:39;;;;;;;58.43;16.57;;;-6.20;99.90;;;-8.82;92.46;101077.84;10387369;28;98597;-75
2021/12/23 05:13:44;;;;;;;48.40;14.63;;;-6.20;99.90;;;-8.88;92.27;101075.34;10372665;28;96736;-75
2021/12/23 05:18:47;;;;;;;45.07;14.70;;;-6.30;99.90;;;-8.96;92.12;101070.34;10397453;28;96882;-76
2021/12/23 05:23:50;;;;;;;45.77;15.67;;;-6.30;99.90;;;-9.02;92.65;101065.28;10363733;28;97062;-75
2021/12/23 05:28:53;;;;;;;49.97;14.87;;;-6.40;99.90;;;-9.06;92.41;101061.03;10396052;28;96957;-75
2021/12/23 05:33:56;;;;;;;37.50;14.40;;;-6.40;99.90;;;-9.11;92.04;101066.28;10414798;27;96889;-76
2021/12/23 05:38:59;;;;;;;33.73;13.70;;;-6.50;99.90;;;-9.15;92.12;101081.78;10369869;28;96776;-75
2021/12/23 05:44:03;;;;;;;34.00;15.00;;;-6.50;99.90;;;-9.17;92.52;101085.25;10382649;28;97786;-75
2021/12/23 05:49:07;;;;;;;40.17;16.20;;;-6.60;99.90;;;-9.08;92.25;101073.94;10372098;28;97040;-76
2021/12/23 05:54:10;;;;;;;66.63;21.23;;;-6.50;99.90;;;-8.91;92.73;101069.41;10360434;28;96977;-76
2021/12/23 05:59:13;;;;;;;60.53;18.63;;;-6.40;99.90;;;-8.70;92.83;101064.75;10363921;28;97562;-76
2021/12/23 06:04:16;;;;;;;49.87;18.00;;;-6.30;99.90;;;-8.50;92.67;101061.88;10391625;28;97802;-76
2021/12/23 06:09:19;;;;;;;54.77;17.63;;;-6.10;99.90;;;-8.29;92.86;101055.44;10383080;28;96965;-78
2021/12/23 06:14:22;;;;;;;51.70;19.43;;;-6.00;99.90;;;-8.11;92.43;101055.94;10357109;28;96694;-79
2021/12/23 06:19:25;;;;;;;50.80;19.23;;;-5.80;99.90;;;-7.94;92.80;101055.63;10386909;27;98212;-76
2021/12/23 06:24:28;;;;;;;51.47;20.13;;;-5.60;99.90;;;-7.78;92.92;101052.75;10368509;28;98008;-75
2021/12/23 06:29:30;;;;;;;53.73;19.37;;;-5.50;99.90;;;-7.62;92.49;101054.09;10347574;28;96972;-76
2021/12/23 06:34:33;;;;;;;52.97;21.00;;;-5.30;99.90;;;-7.45;92.91;101048.59;10324709;28;96665;-76
2021/12/23 06:39:38;;;;;;;57.07;19.83;;;-5.20;99.90;;;-7.27;92.95;101056.78;10333961;28;96669;-76
2021/12/23 06:44:41;;;;;;;48.73;18.47;;;-5.00;99.90;;;-7.11;92.77;101052.13;10329164;28;96632;-76
2021/12/23 06:49:43;;;;;;;54.50;20.23;;;-4.80;99.90;;;-6.93;92.39;101050.84;10333951;28;97094;-76
2021/12/23 06:54:48;;;;;;;44.33;18.30;;;-4.70;99.90;;;-6.82;92.53;101054.03;10331456;28;97888;-76
2021/12/23 06:59:52;;;;;;;45.03;20.57;;;-4.50;99.90;;;-6.68;92.53;101052.81;10323679;28;98189;-76
2021/12/23 07:04:55;;;;;;;46.90;19.43;;;-4.40;99.90;;;-6.55;92.29;101044.72;10329329;28;97150;-76
2021/12/23 07:09:58;;;;;;;58.60;21.27;;;-4.30;99.90;;;-6.42;91.89;101040.06;10322898;28;97786;-76
2021/12/23 07:15:01;;;;;;;75.67;29.27;;;-4.20;99.90;;;-6.30;92.13;101038.91;10326261;28;96974;-76
2021/12/23 07:20:05;;;;;;;89.30;34.80;;;-4.10;99.90;;;-6.15;92.05;101042.84;10346011;28;97555;-76
2021/12/23 07:25:09;;;;;;;86.67;36.30;;;-3.90;99.90;;;-6.00;91.61;101048.44;10350168;28;96641;-76
2021/12/23 07:30:15;;;;;;;191.23;60.90;;;-3.80;99.90;;;-5.83;91.62;101047.91;10343253;28;98510;-76
2021/12/23 07:35:19;;;;;;;116.87;42.87;;;-3.60;99.90;;;-5.72;91.26;101045.88;10377231;28;98454;-76
2021/12/23 07:40:22;;;;;;;101.03;36.17;;;-3.50;99.90;;;-5.58;91.12;101031.69;10373785;28;97884;-76
2021/12/23 07:45:28;;;;;;;81.00;29.77;;;-3.40;99.90;;;-5.45;90.62;101023.53;10376048;28;96979;-76
2021/12/23 07:50:31;;;;;;;78.27;26.90;;;-3.20;99.90;;;-5.31;90.14;101014.47;10392477;28;97063;-76
2021/12/23 07:55:34;;;;;;;77.13;27.47;;;-3.10;99.90;;;-5.17;90.01;101010.53;10388265;28;98296;-76
2021/12/23 08:00:37;;;;;;;79.27;29.30;;;-3.00;99.90;;;-5.03;89.98;101002.34;10383163;28;97014;-76
2021/12/23 08:05:41;;;;;;;78.17;30.67;;;-2.90;99.90;;;-4.94;89.22;100999.44;10366429;28;96941;-76
2021/12/23 08:10:44;;;;;;;71.97;28.27;;;-2.70;99.90;;;-4.82;88.64;101003.38;10385811;28;98576;-76
2021/12/23 08:15:47;;;;;;;75.60;32.67;;;-2.60;99.90;;;-4.75;88.12;100991.06;10382625;28;98351;-77
2021/12/23 08:20:50;;;;;;;66.93;28.37;;;-2.60;99.90;;;-4.65;87.85;100989.84;10384305;28;97284;-76
2021/12/23 08:25:55;;;;;;;57.57;24.57;;;-2.40;99.90;;;-4.60;87.68;100986.22;10381937;28;98234;-77
2021/12/23 08:31:00;;;;;;;69.93;29.00;;;-2.40;99.90;;;-4.51;87.49;100991.97;10375082;28;97313;-77
2021/12/23 08:36:04;;;;;;;79.23;31.77;;;-2.30;99.90;;;-4.46;86.98;100984.88;10402574;28;96681;-77
2021/12/23 08:41:08;;;;;;;73.03;28.67;;;-2.30;99.90;;;-4.41;86.57;100983.81;10379658;28;98208;-77
2021/12/23 08:46:13;;;;;;;55.47;28.07;;;-2.20;99.90;;;-4.30;86.06;100986.03;10388051;28;98085;-77
2021/12/23 08:51:16;;;;;;;57.87;25.43;;;-2.10;99.90;;;-4.15;85.49;100979.44;10376092;28;97090;-76
2021/12/23 08:56:19;;;;;;;51.27;21.80;;;-2.00;99.90;;;-4.03;85.84;100984.19;10386013;28;97128;-77
2021/12/23 09:01:23;;;;;;;51.37;21.80;;;-1.90;99.90;;;-3.91;84.75;100988.09;10390058;28;98382;-77
2021/12/23 09:06:26;;;;;;;31.10;15.23;;;-1.80;99.90;;;-3.85;83.79;100969.69;10391922;28;96700;-77
2021/12/23 09:11:29;;;;;;;33.87;16.13;;;-1.70;99.90;;;-3.71;82.85;100957.03;10379168;28;97003;-77
2021/12/23 09:16:32;;;;;;;30.43;15.00;;;-1.60;99.90;;;-3.57;81.93;100944.34;10391239;28;96768;-77
2021/12/23 09:21:36;;;;;;;39.30;16.70;;;-1.50;99.90;;;-3.38;81.06;100951.41;10392893;28;96891;-77
2021/12/23 09:26:55;;;;;;;29.60;15.43;;;-1.30;99.90;;;-3.20;80.24;100936.84;10374072;28;96881;-77
2021/12/23 09:37:21;;;;;;;27.40;14.20;;;-1.00;99.90;;;-2.81;77.97;100910.94;10370920;28;97330;-78
2021/12/23 09:42:33;;;;;;;30.10;15.00;;;-0.80;99.90;;;-2.61;76.30;100907.47;10383896;28;98550;-78
2021/12/23 09:47:37;;;;;;;31.57;14.57;;;-0.70;99.90;;;-2.50;75.26;100902.66;10376068;28;97735;-76
2021/12/23 09:52:48;;;;;;;27.73;12.53;;;-0.60;99.90;;;-2.39;74.35;100891.78;10384903;28;97972;-76
2021/12/23 09:57:53;;;;;;;27.80;13.23;;;-0.40;99.90;;;-2.35;73.47;100888.94;10392647;28;96639;-76
2021/12/23 10:02:57;;;;;;;30.53;15.27;;;-0.40;99.90;;;-2.31;72.57;100884.44;10381562;28;96747;-76
2021/12/23 10:08:01;;;;;;;28.70;14.67;;;-0.30;99.90;;;-2.21;72.46;100860.53;10390730;27;96673;-76
2021/12/23 10:40:53;;;;;;;28.93;13.10;;;0.30;99.90;;;-1.67;69.66;100803.28;10389623;28;98271;-75
2021/12/23 10:46:26;;;;;;;26.97;12.97;;;0.40;99.90;;;-1.65;69.33;100799.69;10383387;28;96982;-75
2021/12/23 10:52:19;;;;;;;23.87;11.70;;;0.40;99.90;;;-1.63;68.68;100789.16;10381132;28;97068;-75
2021/12/23 11:03:20;;;;;;;38.87;16.17;;;0.50;99.90;;;-1.62;68.57;100765.66;10376866;28;96763;-75
2021/12/23 11:45:51;;;;;;;32.67;14.90;;;1.00;99.90;;;-1.05;67.67;100670.63;10374458;28;96895;-75
2021/12/23 11:51:07;;;;;;;31.10;15.90;;;1.00;99.50;;;-1.08;67.92;100663.78;10368475;28;96718;-75
2021/12/23 11:56:17;;;;;;;39.87;15.57;;;1.00;99.90;;;-1.14;67.60;100664.13;10379512;28;97984;-75
2021/12/23 12:01:26;;;;;;;30.93;14.93;;;0.90;99.60;;;-1.12;67.73;100633.59;10376970;28;97180;-75
2021/12/23 12:06:46;;;;;;;29.97;14.30;;;0.90;99.60;;;-1.14;67.35;100628.47;10370246;28;97119;-75
2021/12/23 12:11:58;;;;;;;27.27;13.97;;;0.90;99.30;;;-1.18;67.19;100628.72;10369190;28;96777;-75
2021/12/23 12:17:23;;;;;;;28.47;14.23;;;0.90;98.10;;;-1.25;66.79;100627.38;10389140;28;97526;-75
2021/12/23 12:23:14;;;;;;;26.30;13.67;;;0.80;98.20;;;-1.22;66.82;100621.97;10377981;28;98974;-75
2021/12/23 12:28:33;;;;;;;29.80;13.73;;;0.80;97.30;;;-1.19;66.90;100596.56;10297002;28;96870;-75
2021/12/23 12:33:40;;;;;;;31.93;15.80;;;0.80;98.30;;;-1.14;66.60;100594.56;10390281;27;98136;-74
2021/12/23 12:39:11;;;;;;;36.47;12.93;;;0.90;97.90;;;-1.08;66.56;100583.81;10376349;28;97669;-75
2021/12/23 12:44:26;;;;;;;26.67;13.50;;;1.00;98.00;;;-1.08;66.34;100580.31;10371823;28;96842;-76
2021/12/23 12:49:45;;;;;;;25.83;12.53;;;1.00;97.50;;;-1.04;66.61;100571.41;10381849;28;96895;-75
2021/12/23 12:54:52;;;;;;;28.03;12.37;;;1.10;97.90;;;-1.00;66.08;100574.69;10377520;28;96788;-75
2021/12/23 12:59:55;;;;;;;24.83;13.20;;;1.20;98.30;;;-0.94;65.91;100562.16;10385614;28;97451;-75
2021/12/23 13:05:07;;;;;;;38.77;13.93;;;1.20;97.20;;;-0.93;66.08;100553.41;10387036;28;98560;-74
2021/12/23 13:10:18;;;;;;;32.77;14.13;;;1.20;96.90;;;-0.93;65.54;100544.72;10386450;28;96948;-75
2021/12/23 13:15:45;;;;;;;28.88;13.88;;;1.20;96.80;;;-0.91;65.46;100532.44;10393815;28;96566;-75
2021/12/23 13:20:55;;;;;;;25.40;14.40;;;1.20;97.10;;;-0.87;65.45;100526.13;10367134;28;98386;-75
2021/12/23 13:26:07;;;;;;;30.37;14.33;;;1.20;97.10;;;-0.88;65.47;100521.84;10392213;28;98354;-75
2021/12/23 13:31:32;;;;;;;22.93;12.40;;;1.20;96.50;;;-0.90;65.49;100508.88;10378347;28;98355;-75
2021/12/23 13:36:44;;;;;;;29.97;13.40;;;1.20;96.10;;;-0.91;65.80;100488.91;10380571;28;98389;-75
2021/12/23 13:42:00;;;;;;;40.47;16.63;;;1.20;96.70;;;-0.94;65.87;100483.88;10384577;28;97270;-75
2021/12/23 13:47:19;;;;;;;44.00;16.40;;;1.20;96.80;;;-0.97;66.20;100486.66;10372216;28;96655;-75
2021/12/23 13:52:39;;;;;;;47.93;18.10;;;1.20;96.80;;;-1.04;66.05;100495.75;10387420;28;96958;-75
2021/12/23 13:57:56;;;;;;;33.57;13.70;;;1.20;96.80;;;-1.08;66.12;100483.81;10402214;28;97604;-75
2021/12/23 14:03:12;;;;;;;56.00;24.10;;;1.10;96.40;;;-1.13;66.91;100468.44;10404606;28;96914;-75
2021/12/23 14:08:16;;;;;;;38.97;19.20;;;1.10;96.60;;;-1.15;66.97;100467.69;10385068;28;96958;-75
2021/12/23 14:13:22;;;;;;;31.80;14.67;;;1.00;96.80;;;-1.16;67.31;100462.56;10389329;28;96553;-75
2021/12/23 14:23:45;;;;;;;90.80;35.23;;;1.00;97.10;;;-1.21;67.47;100441.09;10395777;28;96790;-75
2021/12/23 14:28:56;;;;;;;47.97;21.37;;;1.00;97.40;;;-1.22;67.92;100429.00;10394095;28;96834;-75
2021/12/23 14:34:03;;;;;;;52.20;22.75;;;1.00;97.50;;;-1.22;67.52;100434.22;10395247;28;96972;-75
2021/12/23 14:39:26;;;;;;;34.33;16.23;;;1.00;97.20;;;-1.24;66.83;100426.50;10374817;28;96655;-75
2021/12/23 14:44:37;;;;;;;19.30;10.50;;;1.00;97.10;;;-1.24;65.45;100433.47;10398232;28;96803;-75
2021/12/23 14:55:18;;;;;;;23.87;10.40;;;1.00;95.50;;;-1.24;62.71;100438.69;10388070;27;98025;-75
2021/12/23 15:00:43;;;;;;;17.42;8.73;;;1.00;94.40;;;-1.22;61.40;100423.78;10394588;28;97349;-75
2021/12/23 15:05:50;;;;;;;20.83;8.87;;;1.00;94.20;;;-1.24;60.69;100397.81;10384546;28;96575;-75
2021/12/23 15:10:55;;;;;;;25.03;10.17;;;1.00;92.30;;;-1.24;60.27;100397.81;10380249;28;96684;-74
2021/12/23 15:16:13;;;;;;;28.17;11.90;;;0.90;92.00;;;-1.25;59.36;100390.09;10386152;28;97903;-75
2021/12/23 15:21:52;;;;;;;22.03;11.23;;;0.90;90.10;;;-1.27;59.49;100374.50;10385825;28;98051;-79
2021/12/23 15:27:09;;;;;;;19.27;10.17;;;0.90;90.20;;;-1.28;59.43;100351.13;10376209;28;96870;-78
2021/12/23 15:32:22;;;;;;;18.00;8.60;;;0.90;89.80;;;-1.28;59.66;100361.56;10379121;28;97151;-79
2021/12/23 15:37:26;;;;;;;24.60;8.77;;;0.90;90.80;;;-1.29;59.20;100345.09;10375302;28;98488;-79
2021/12/23 15:42:29;;;;;;;16.20;7.40;;;0.80;89.60;;;-1.29;58.67;100328.59;10387048;28;98401;-80
2021/12/23 15:47:33;;;;;;;16.23;7.27;;;0.80;88.40;;;-1.28;58.75;100319.84;10381801;28;96712;-76
2021/12/23 15:52:36;;;;;;;13.87;7.33;;;0.80;88.30;;;-1.29;58.71;100312.97;10372459;28;98453;-76
2021/12/23 15:57:39;;;;;;;15.17;7.73;;;0.80;89.00;;;-1.30;59.25;100306.06;10397455;28;97063;-76
2021/12/23 16:02:44;;;;;;;18.87;8.97;;;0.90;87.80;;;-1.33;59.09;100301.84;10389989;27;96617;-76
2021/12/23 16:07:50;;;;;;;18.50;9.33;;;0.80;88.10;;;-1.31;58.97;100307.00;10385879;27;96898;-76
2021/12/23 16:12:53;;;;;;;32.63;12.37;;;0.80;88.30;;;-1.33;59.38;100287.97;10382391;27;96832;-76
2021/12/23 16:17:56;;;;;;;30.73;12.17;;;0.80;88.20;;;-1.34;59.12;100261.09;10381828;28;97737;-77
2021/12/23 16:23:04;;;;;;;21.83;9.53;;;0.80;86.30;;;-1.36;59.13;100269.00;10385775;28;96893;-77
2021/12/23 16:28:08;;;;;;;27.27;11.37;;;0.80;86.80;;;-1.33;59.40;100272.34;10391869;28;97431;-77
2021/12/23 16:33:11;;;;;;;31.13;13.50;;;0.80;87.30;;;-1.36;59.24;100269.00;10375017;28;96730;-77
2021/12/23 16:38:18;;;;;;;21.77;9.10;;;0.80;87.10;;;-1.36;58.74;100274.22;10393273;27;97107;-76
2021/12/23 16:43:25;;;;;;;17.50;8.20;;;0.80;88.30;;;-1.36;59.22;100271.59;10384530;28;97135;-77
2021/12/23 16:48:28;;;;;;;20.87;9.83;;;0.80;87.20;;;-1.36;59.43;100257.75;10378303;28;96955;-77
2021/12/23 16:53:36;;;;;;;21.00;10.43;;;0.80;87.70;;;-1.38;58.77;100249.16;10382871;28;97527;-77
2021/12/23 16:58:42;;;;;;;20.10;10.23;;;0.80;86.30;;;-1.39;58.58;100253.53;10389514;28;97151;-77
2021/12/23 17:03:45;;;;;;;22.37;8.93;;;0.80;85.40;;;-1.42;58.52;100230.25;10373000;28;97161;-77
2021/12/23 17:08:48;;;;;;;19.30;9.30;;;0.70;85.40;;;-1.43;58.38;100244.22;10381707;28;96704;-77
2021/12/23 17:13:51;;;;;;;18.57;8.37;;;0.70;85.70;;;-1.45;58.55;100246.06;10372248;28;97090;-81
2021/12/23 17:18:58;;;;;;;18.63;8.60;;;0.70;84.60;;;-1.49;58.48;100208.09;10383326;28;97200;-81
2021/12/23 17:24:01;;;;;;;16.60;8.77;;;0.70;85.10;;;-1.57;58.78;100207.69;10367383;28;96796;-81
2021/12/23 17:29:04;;;;;;;22.90;9.70;;;0.60;84.90;;;-1.70;58.94;100197.16;10379440;28;97057;-78
2021/12/23 17:34:07;;;;;;;29.23;11.83;;;0.50;84.80;;;-1.81;58.90;100190.91;10379296;28;98221;-77
2021/12/23 17:39:12;;;;;;;20.57;10.00;;;0.40;84.90;;;-1.94;59.51;100199.44;10361114;28;97946;-77
2021/12/23 17:44:15;;;;;;;41.47;15.73;;;0.40;85.50;;;-2.11;60.05;100186.53;10400970;27;98019;-77
2021/12/23 17:49:19;;;;;;;35.40;13.93;;;0.30;85.80;;;-2.28;60.39;100182.31;10385871;28;98086;-79
2021/12/23 17:54:23;;;;;;;36.83;13.00;;;0.10;85.70;;;-2.43;61.29;100173.59;10390442;28;98404;-78
2021/12/23 17:59:27;;;;;;;27.87;11.50;;;0.00;86.20;;;-2.58;61.73;100163.19;10368126;28;96796;-78
2021/12/23 18:04:31;;;;;;;27.60;10.73;;;-0.20;86.60;;;-2.75;62.01;100157.16;10395314;28;96607;-79
2021/12/23 18:09:34;;;;;;;23.77;10.80;;;-0.30;87.00;;;-2.88;62.63;100150.09;10375267;28;98094;-78
2021/12/23 18:14:37;;;;;;;22.83;10.87;;;-0.40;87.40;;;-3.02;63.53;100153.47;10380599;28;98050;-78
2021/12/23 18:19:40;;;;;;;24.97;12.10;;;-0.60;88.40;;;-3.17;64.09;100152.53;10384908;28;97578;-78
2021/12/23 18:24:43;;;;;;;40.97;14.93;;;-0.70;88.90;;;-3.36;64.41;100136.22;10379107;28;97317;-78
2021/12/23 18:29:47;;;;;;;49.57;17.13;;;-0.80;89.10;;;-3.56;65.39;100150.25;10377876;28;97129;-78
2021/12/23 18:34:52;;;;;;;46.37;18.57;;;-1.00;90.10;;;-3.71;66.29;100148.47;10383394;28;96662;-77
2021/12/23 18:39:59;;;;;;;48.83;18.77;;;-1.10;90.80;;;-3.85;67.05;100137.00;10386456;28;96656;-77
2021/12/23 18:45:08;;;;;;;60.97;19.17;;;-1.30;91.10;;;-3.95;68.12;100140.19;10395625;28;98464;-77
2021/12/23 18:50:12;;;;;;;47.03;16.17;;;-1.40;92.00;;;-4.05;68.90;100139.78;10387647;28;98025;-77
2021/12/23 18:55:15;;;;;;;47.40;18.70;;;-1.50;92.30;;;-4.08;69.36;100139.91;10400566;28;96859;-76
2021/12/23 19:00:28;;;;;;;49.20;19.23;;;-1.60;92.90;;;-4.10;69.97;100119.25;10384022;28;98155;-76
2021/12/23 19:05:35;;;;;;;42.00;16.83;;;-1.60;93.50;;;-4.08;70.38;100108.78;10388872;28;96723;-82
2021/12/23 19:10:38;;;;;;;42.20;16.77;;;-1.60;93.70;;;-4.08;70.52;100119.16;10392233;28;98817;-76
2021/12/23 19:15:41;;;;;;;46.00;17.63;;;-1.60;94.10;;;-4.11;71.06;100117.56;10389764;28;98202;-76
2021/12/23 19:20:44;;;;;;;62.67;25.03;;;-1.70;94.30;;;-4.15;71.34;100104.81;10386986;28;97839;-79
2021/12/23 19:25:47;;;;;;;65.10;25.77;;;-1.70;94.40;;;-4.19;71.57;100105.91;10377119;28;97060;-79
2021/12/23 19:30:50;;;;;;;35.07;16.13;;;-1.70;95.20;;;-4.28;71.46;100096.81;10379841;28;96846;-77
2021/12/23 19:35:54;;;;;;;40.87;15.97;;;-1.80;95.30;;;-4.39;72.03;100083.53;10395802;28;98793;-76
2021/12/23 19:40:57;;;;;;;30.77;14.40;;;-1.90;95.50;;;-4.50;72.19;100085.81;10397983;28;96628;-75
2021/12/23 19:46:01;;;;;;;28.87;12.50;;;-2.00;96.10;;;-4.63;73.00;100072.63;10379627;28;96868;-76
2021/12/23 19:51:04;;;;;;;31.67;11.90;;;-2.10;96.50;;;-4.76;72.81;100074.13;10393247;28;97811;-76
2021/12/23 19:56:07;;;;;;;30.27;11.90;;;-2.20;96.40;;;-4.92;74.01;100085.25;10373888;28;97874;-76
2021/12/23 20:01:11;;;;;;;24.43;11.63;;;-2.30;97.70;;;-5.00;74.02;100081.31;10381117;28;98504;-76
2021/12/23 20:06:14;;;;;;;26.37;10.53;;;-2.40;97.60;;;-5.03;74.55;100060.75;10384338;28;97111;-76
2021/12/23 20:11:17;;;;;;;28.67;13.13;;;-2.50;97.40;;;-5.09;74.53;100046.34;10389484;28;97864;-76
2021/12/23 20:16:21;;;;;;;27.70;12.03;;;-2.60;97.60;;;-5.16;74.96;100042.31;10383653;28;97101;-75
2021/12/23 20:21:24;;;;;;;29.53;12.30;;;-2.60;98.40;;;-5.20;74.89;100040.81;10386795;28;97222;-76
2021/12/23 20:26:28;;;;;;;29.67;10.87;;;-2.70;99.00;;;-5.23;75.42;100023.66;10387075;28;96653;-74
2021/12/23 20:31:31;;;;;;;29.80;11.87;;;-2.70;99.20;;;-5.17;75.65;100009.56;10370561;28;96817;-74
2021/12/23 20:36:35;;;;;;;73.13;25.90;;;-2.70;99.50;;;-5.09;76.16;99994.50;10394148;28;96892;-74
2021/12/23 20:41:38;;;;;;;41.87;18.43;;;-2.70;99.90;;;-4.96;76.27;99980.03;10390159;28;97146;-74
2021/12/23 20:46:48;;;;;;;31.70;13.77;;;-2.60;99.90;;;-4.81;76.58;99973.25;10386353;28;96758;-77
2021/12/23 20:51:54;;;;;;;34.03;13.50;;;-2.40;99.90;;;-4.68;76.59;99963.09;10397595;28;96765;-76
2021/12/23 20:56:57;;;;;;;56.73;22.37;;;-2.40;99.90;;;-4.60;76.50;99948.84;10371306;28;97841;-76
2021/12/23 21:02:00;;;;;;;60.77;22.43;;;-2.30;99.90;;;-4.56;76.65;99936.53;10377542;28;96503;-76
2021/12/23 21:07:04;;;;;;;75.70;32.00;;;-2.20;99.90;;;-4.51;76.34;99931.13;10387718;28;98483;-75
2021/12/23 21:12:08;;;;;;;71.80;28.47;;;-2.20;99.90;;;-4.46;76.37;99923.94;10382189;28;97016;-75
2021/12/23 21:17:11;;;;;;;52.77;22.90;;;-2.10;99.90;;;-4.36;76.63;99917.38;10361163;28;97033;-75
2021/12/23 21:22:13;;;;;;;37.47;16.03;;;-2.10;99.90;;;-4.25;76.17;99915.06;10385638;28;97449;-75
2021/12/23 21:27:17;;;;;;;36.67;15.43;;;-2.00;99.90;;;-4.15;75.89;99894.63;10380643;28;97282;-76
2021/12/23 21:32:20;;;;;;;46.87;17.70;;;-1.90;99.90;;;-4.03;75.60;99878.38;10378371;28;96873;-75
2021/12/23 21:37:23;;;;;;;43.40;18.33;;;-1.80;99.90;;;-3.92;75.58;99863.06;10380784;28;97935;-74
2021/12/23 21:42:28;;;;;;;35.40;15.70;;;-1.70;99.90;;;-3.83;75.05;99825.41;10384794;28;96863;-74
2021/12/23 21:47:31;;;;;;;41.37;16.23;;;-1.60;99.90;;;-3.75;75.18;99841.38;10387535;28;96706;-75
2021/12/23 21:52:36;;;;;;;40.63;16.40;;;-1.50;99.90;;;-3.67;75.21;99802.81;10390738;27;96701;-75
2021/12/23 21:57:44;;;;;;;58.60;21.03;;;-1.40;99.90;;;-3.60;74.96;99788.59;10381360;28;96972;-75
2021/12/23 22:02:48;;;;;;;61.17;22.57;;;-1.40;99.90;;;-3.55;74.99;99817.69;10388357;27;98368;-75
2021/12/23 22:07:52;;;;;;;39.37;17.47;;;-1.30;99.90;;;-3.47;74.91;99850.22;10396278;27;96600;-76
2021/12/23 22:12:56;;;;;;;36.63;16.70;;;-1.20;99.90;;;-3.46;75.44;99857.06;10366107;28;97235;-76